Time;durP1;ratioP1;P1;durP2;ratioP2;P2;SDS_P1;SDS_P2;PMS_P1;PMS_P2;Temp;Humidity;BMP_temperature;BMP_pressure;BME280_temperature;BME280_humidity;BME280_pressure;Samples;Min_cycle;Max_cycle;Signal;HPM_P1;HPM_P2
2022/06/11 00:01:49;;;;;;;12.10;9.10;;;;;;;16.54;83.54;98924.30;106977;1275;22564;-80
2022/06/11 00:04:26;;;;;;;9.40;7.80;;;;;;;16.45;83.13;98919.61;106960;1274;138556;-82
2022/06/11 00:06:57;;;;;;;13.70;8.10;;;;;;;16.29;82.24;98917.05;107227;1274;25358;-82
2022/06/11 00:09:26;;;;;;;11.80;8.10;;;;;;;16.09;82.04;98918.42;106457;1278;25317;-81
2022/06/11 00:11:53;;;;;;;11.70;9.50;;;;;;;15.93;82.60;98917.99;107011;1274;137742;-81
2022/06/11 00:14:24;;;;;;;10.60;8.20;;;;;;;15.82;83.18;98913.71;106748;1274;22552;-81
2022/06/11 00:16:51;;;;;;;9.20;8.20;;;;;;;15.79;83.47;98910.14;107038;1274;137992;-81
2022/06/11 00:19:21;;;;;;;9.10;8.20;;;;;;;15.74;83.44;98908.27;106498;1274;26410;-81
2022/06/11 00:21:51;;;;;;;12.10;7.80;;;;;;;15.64;83.59;98904.70;107140;1276;22589;-80
2022/06/11 00:24:19;;;;;;;9.60;8.40;;;;;;;15.56;84.24;98899.06;106889;1277;22547;-81
2022/06/11 00:26:48;;;;;;;9.90;8.90;;;;;;;15.54;84.18;98900.31;106964;1274;22725;-81
2022/06/11 00:29:16;;;;;;;10.00;9.00;;;;;;;15.51;84.35;98899.31;106273;1278;137587;-81
2022/06/11 00:31:44;;;;;;;10.80;9.30;;;;;;;15.47;84.30;98901.05;107234;1275;24320;-81
2022/06/11 00:34:12;;;;;;;9.10;8.30;;;;;;;15.47;84.51;98897.41;107005;1274;138704;-81
2022/06/11 00:36:40;;;;;;;9.90;8.50;;;;;;;15.48;84.76;98897.60;106768;1274;24229;-80
2022/06/11 00:39:08;;;;;;;10.30;8.80;;;;;;;15.49;84.49;98902.10;106522;1275;24255;-81
2022/06/11 00:41:38;;;;;;;13.70;9.00;;;;;;;15.50;84.68;98905.84;107275;1275;137907;-80
2022/06/11 00:44:05;;;;;;;9.70;8.80;;;;;;;15.53;84.35;98912.13;106453;1274;22582;-80
2022/06/11 00:46:45;;;;;;;10.40;8.80;;;;;;;15.54;84.47;98908.27;106642;1277;138456;-80
2022/06/11 00:49:37;;;;;;;10.30;8.10;;;;;;;15.51;83.95;98907.77;106946;1274;26067;-80
2022/06/11 00:52:12;;;;;;;8.90;8.10;;;;;;;15.47;84.10;98912.41;106558;1274;139096;-81
2022/06/11 00:54:42;;;;;;;9.10;8.30;;;;;;;15.42;83.75;98914.91;106606;1274;22547;-80
2022/06/11 00:57:10;;;;;;;11.50;8.70;;;;;;;15.37;83.99;98913.84;106760;1274;22581;-81
2022/06/11 00:59:45;;;;;;;11.90;9.10;;;;;;;15.33;84.28;98914.59;107048;1274;138428;-81
2022/06/11 01:02:12;;;;;;;12.50;8.60;;;;;;;15.29;84.10;98911.26;106475;1274;23028;-81
2022/06/11 01:04:48;;;;;;;8.80;7.80;;;;;;;15.27;84.49;98909.70;106399;1275;138922;-81
2022/06/11 01:07:43;;;;;;;8.50;7.50;;;;;;;15.26;84.31;98912.56;106382;1274;23256;-81
2022/06/11 01:10:21;;;;;;;10.40;8.80;;;;;;;15.27;84.47;98912.77;106236;1274;138710;-80
2022/06/11 01:13:04;;;;;;;9.50;8.60;;;;;;;15.26;84.59;98916.13;106654;1274;22546;-81
2022/06/11 01:15:46;;;;;;;9.80;8.90;;;;;;;15.26;84.65;98918.37;106147;1277;30434;-80
2022/06/11 01:18:40;;;;;;;14.80;9.40;;;;;;;15.25;84.36;98918.54;106136;1277;137634;-80
2022/06/11 01:21:30;;;;;;;11.30;8.20;;;;;;;15.12;83.30;98911.91;105956;1274;508018;-81
2022/06/11 01:24:34;;;;;;;9.50;7.80;;;;;;;14.94;83.42;98913.27;106765;1273;138540;-80
2022/06/11 01:27:25;;;;;;;10.00;9.10;;;;;;;14.86;83.82;98916.11;106484;1274;25733;-80
2022/06/11 01:29:57;;;;;;;10.00;8.60;;;;;;;14.79;84.27;98913.59;106399;1274;137729;-80
2022/06/11 01:32:33;;;;;;;9.30;8.40;;;;;;;14.79;84.77;98914.06;106654;1277;22632;-80
2022/06/11 01:35:03;;;;;;;8.90;7.90;;;;;;;14.79;84.39;98911.34;106443;1274;138407;-80
2022/06/11 01:37:38;;;;;;;12.30;7.60;;;;;;;14.80;84.37;98910.95;106321;1274;22716;-80
2022/06/11 01:40:13;;;;;;;10.00;9.00;;;;;;;14.81;84.41;98907.95;106333;1274;138574;-80
2022/06/11 01:42:46;;;;;;;10.60;9.60;;;;;;;14.79;84.06;98907.06;106491;1276;25120;-80
2022/06/11 01:45:19;;;;;;;9.60;8.70;;;;;;;14.70;84.04;98905.39;106645;1274;24225;-80
2022/06/11 01:47:48;;;;;;;10.80;8.60;;;;;;;14.66;84.51;98908.55;106451;1274;138235;-80
2022/06/11 01:50:17;;;;;;;;;;;;;;;14.65;84.61;98912.59;106528;1274;22523;-80
2022/06/11 01:52:56;;;;;;;9.20;8.10;;;;;;;14.63;84.54;98914.33;105927;1277;125003;-80
2022/06/11 01:55:39;;;;;;;9.10;8.20;;;;;;;14.63;84.63;98916.06;105980;1276;22566;-80
2022/06/11 01:58:25;;;;;;;12.90;9.10;;;;;;;14.59;84.40;98921.70;105837;1277;137662;-79
2022/06/11 02:01:30;;;;;;;11.50;8.90;;;;;;;14.55;84.42;98918.65;106459;1276;22591;-80
2022/06/11 02:04:26;;;;;;;8.90;8.10;;;;;;;14.52;84.59;98919.45;105912;1277;138376;-79
2022/06/11 02:07:11;;;;;;;9.40;8.40;;;;;;;14.53;84.99;98921.27;106163;1274;30785;-80
2022/06/11 02:10:03;;;;;;;9.70;8.70;;;;;;;14.56;85.07;98920.32;106568;1274;22664;-79
2022/06/11 02:12:41;;;;;;;9.20;8.40;;;;;;;14.58;84.87;98920.69;106280;1274;25263;-79
2022/06/11 02:15:39;;;;;;;11.70;9.70;;;;;;;14.58;85.07;98919.15;106375;1274;26625;-79
2022/06/11 02:18:10;;;;;;;10.10;9.10;;;;;;;14.58;85.02;98919.46;106194;1276;137861;-79
2022/06/11 02:20:43;;;;;;;9.50;8.60;;;;;;;14.57;85.13;98926.42;106218;1277;22996;-79
2022/06/11 02:23:35;;;;;;;11.10;8.50;;;;;;;14.56;85.02;98924.91;106529;1274;138241;-79
2022/06/11 02:26:15;;;;;;;9.90;9.00;;;;;;;14.55;85.07;98928.52;106092;1274;22570;-79
2022/06/11 02:28:44;;;;;;;;;;;;;;;14.52;85.20;98928.11;106256;1274;138309;-78
2022/06/11 02:31:15;;;;;;;11.30;8.90;;;;;;;14.48;85.43;98929.93;106296;1275;22997;-78
2022/06/11 02:33:42;;;;;;;11.10;8.30;;;;;;;14.49;85.95;98932.54;106149;1276;25270;-79
2022/06/11 02:36:18;;;;;;;9.00;8.20;;;;;;;14.49;85.99;98930.54;106018;1274;138156;-78
2022/06/11 02:38:45;;;;;;;10.90;8.30;;;;;;;14.49;85.93;98936.47;106325;1274;22565;-78
2022/06/11 02:41:26;;;;;;;8.50;7.60;;;;;;;14.49;85.97;98934.98;105971;1275;138636;-78
2022/06/11 02:43:53;;;;;;;11.70;8.30;;;;;;;14.50;86.09;98936.09;106047;1274;22571;-79
2022/06/11 02:49:12;;;;;;;10.60;7.30;;;;;;;14.55;86.59;98943.44;106454;1275;24242;-79
2022/06/11 02:51:44;;;;;;;7.90;6.40;;;;;;;14.59;86.59;98941.69;106148;1274;25441;-79
2022/06/11 02:54:11;;;;;;;8.10;7.10;;;;;;;14.63;86.61;98946.84;105984;1274;138296;-79
2022/06/11 02:56:38;;;;;;;9.30;7.40;;;;;;;14.66;86.50;98954.16;106127;1274;25261;-79
2022/06/11 02:59:06;;;;;;;8.50;7.20;;;;;;;14.69;86.73;98956.05;106122;1274;138288;-79
2022/06/11 03:01:34;;;;;;;9.00;6.90;;;;;;;14.73;86.97;98950.77;105994;1277;22582;-79
2022/06/11 03:04:01;;;;;;;7.20;6.60;;;;;;;14.78;86.78;98954.27;105955;1277;138603;-79
2022/06/11 03:06:30;;;;;;;6.70;5.50;;;;;;;14.81;86.52;98953.73;106739;1274;24440;-79
2022/06/11 03:08:58;;;;;;;7.30;6.50;;;;;;;14.82;86.45;98953.20;106213;1274;24273;-79
2022/06/11 03:11:26;;;;;;;7.80;7.00;;;;;;;14.83;86.75;98953.33;106346;1275;137854;-79
2022/06/11 03:13:54;;;;;;;10.00;6.70;;;;;;;14.86;86.67;98949.02;106171;1274;24235;-79
2022/06/11 03:16:21;;;;;;;7.30;5.90;;;;;;;14.87;86.28;98947.88;105990;1277;139119;-79
2022/06/11 03:18:49;;;;;;;6.70;6.00;;;;;;;14.92;86.63;98948.02;106393;1274;25259;-79
2022/06/11 03:21:16;;;;;;;10.30;5.90;;;;;;;14.95;86.10;98947.77;106285;1274;25379;-79
2022/06/11 03:23:43;;;;;;;8.20;6.40;;;;;;;14.96;86.00;98951.35;106063;1274;137945;-79
2022/06/11 03:26:10;;;;;;;8.10;7.30;;;;;;;14.98;85.97;98951.48;106561;1274;22653;-79
2022/06/11 03:28:37;;;;;;;10.80;6.60;;;;;;;14.99;85.52;98948.69;106237;1274;138224;-79
2022/06/11 03:31:06;;;;;;;6.60;5.60;;;;;;;14.95;85.25;98948.82;106067;1276;22580;-79
2022/06/11 03:33:34;;;;;;;;;;;;;;;14.90;85.06;98941.04;106209;1274;22558;-79
2022/06/11 03:36:10;;;;;;;9.30;6.40;;;;;;;14.89;85.26;98939.27;106000;1274;124067;-79
2022/06/11 03:38:39;;;;;;;7.10;6.40;;;;;;;14.83;84.72;98935.11;106061;1276;22550;-79
2022/06/11 03:41:08;;;;;;;6.80;6.20;;;;;;;14.77;84.98;98946.30;106058;1274;137427;-79
2022/06/11 03:43:35;;;;;;;6.50;5.90;;;;;;;14.76;85.16;98941.02;106126;1274;25326;-79
2022/06/11 03:46:03;;;;;;;6.20;5.60;;;;;;;14.73;84.97;98941.72;106164;1275;139453;-79
2022/06/11 03:48:31;;;;;;;8.70;6.10;;;;;;;14.70;84.60;98940.70;106567;1274;22545;-79
2022/06/11 03:50:59;;;;;;;6.50;5.90;;;;;;;14.69;84.86;98944.41;106264;1274;25257;-79
2022/06/11 03:53:29;;;;;;;7.60;6.10;;;;;;;14.68;84.75;98944.14;106258;1275;137782;-80
2022/06/11 03:55:59;;;;;;;7.00;6.00;;;;;;;14.66;84.58;98946.75;106150;1277;25368;-79
2022/06/11 03:58:26;;;;;;;6.40;5.70;;;;;;;14.63;84.65;98947.45;105950;1277;139174;-79
2022/06/11 04:01:28;;;;;;;8.30;5.40;;;;;;;14.59;84.67;98947.84;106291;1274;24244;-79
2022/06/11 04:03:59;;;;;;;9.90;5.70;;;;;;;14.58;84.73;98947.98;106011;1277;22751;-79
2022/06/11 04:06:30;;;;;;;;;;;;;;;14.57;84.67;98945.10;106174;1275;22613;-79
2022/06/11 04:08:58;;;;;;;8.50;6.40;;;;;;;14.57;85.13;98947.89;105970;1277;22820;-78
2022/06/11 04:11:26;;;;;;;6.70;6.00;;;;;;;14.56;85.18;98940.65;106289;1274;137902;-78
2022/06/11 04:13:55;;;;;;;6.20;5.60;;;;;;;14.57;85.06;98939.20;106432;1273;24298;-79
2022/06/11 04:16:32;;;;;;;7.60;5.90;;;;;;;14.60;85.07;98934.37;106486;1273;138622;-78
2022/06/11 04:19:04;;;;;;;6.30;5.70;;;;;;;14.63;85.00;98936.46;106530;1274;25326;-78
2022/06/11 04:21:32;;;;;;;10.60;6.80;;;;;;;14.66;85.00;98937.66;106085;1274;24380;-78
2022/06/11 04:24:01;;;;;;;7.20;5.90;;;;;;;14.69;85.15;98941.52;106233;1274;137715;-78
2022/06/11 04:26:32;;;;;;;7.80;6.00;;;;;;;14.71;85.08;98941.36;106674;1274;24281;-78
2022/06/11 04:29:00;;;;;;;6.30;5.20;;;;;;;14.74;85.22;98941.73;106523;1273;138234;-78
2022/06/11 04:31:29;;;;;;;9.80;5.60;;;;;;;14.78;84.66;98943.20;106644;1274;22522;-78
2022/06/11 04:33:58;;;;;;;5.10;4.50;;;;;;;14.85;84.81;98947.80;106177;1275;138085;-78
2022/06/11 04:36:29;;;;;;;6.90;5.40;;;;;;;14.91;84.73;98947.79;106530;1273;24227;-78
2022/06/11 04:38:57;;;;;;;8.30;5.60;;;;;;;14.95;84.46;98950.14;106104;1277;24437;-78
2022/06/11 04:41:25;;;;;;;6.10;5.40;;;;;;;14.99;84.39;98945.46;105893;1274;138176;-78
2022/06/11 04:43:52;;;;;;;6.20;5.10;;;;;;;15.05;84.64;98946.10;106062;1277;24379;-78
2022/06/11 04:46:20;;;;;;;7.30;5.50;;;;;;;15.14;84.46;98947.32;106592;1277;138934;-78
2022/06/11 04:48:48;;;;;;;6.20;4.90;;;;;;;15.23;84.36;98945.29;106940;1274;25251;-78
2022/06/11 04:51:16;;;;;;;6.20;5.50;;;;;;;15.29;83.99;98944.25;107027;1274;22853;-78
2022/06/11 04:53:44;;;;;;;7.40;6.20;;;;;;;15.34;84.03;98946.37;106462;1274;138048;-78
2022/06/11 04:56:17;;;;;;;7.30;5.20;;;;;;;15.38;83.75;98944.35;106372;1274;25388;-78
2022/06/11 04:58:45;;;;;;;5.40;4.60;;;;;;;15.44;83.67;98945.29;107229;1274;138676;-78
2022/06/11 05:01:13;;;;;;;5.30;4.80;;;;;;;15.50;83.63;98945.48;106931;1274;23554;-79
2022/06/11 05:03:41;;;;;;;5.40;4.80;;;;;;;15.57;83.88;98946.13;106637;1274;23053;-78
2022/06/11 05:06:08;;;;;;;7.00;5.10;;;;;;;15.64;83.65;98946.23;106517;1274;137756;-79
2022/06/11 05:08:35;;;;;;;7.10;4.80;;;;;;;15.72;83.87;98949.33;106578;1274;22568;-79
2022/06/11 05:11:05;;;;;;;5.40;4.90;;;;;;;15.81;83.51;98950.51;106201;1276;138713;-79
2022/06/11 05:13:33;;;;;;;6.50;5.10;;;;;;;15.88;83.06;98952.30;106719;1274;22580;-79
2022/06/11 05:16:01;;;;;;;6.00;4.90;;;;;;;15.92;82.48;98957.32;106537;1274;137948;-78
2022/06/11 05:18:30;;;;;;;6.10;4.40;;;;;;;15.97;82.49;98957.06;106190;1276;22541;-79
2022/06/11 05:20:57;;;;;;;4.80;4.30;;;;;;;16.03;82.37;98958.09;106306;1276;25284;-79
2022/06/11 05:23:24;;;;;;;5.00;4.30;;;;;;;16.10;81.89;98958.81;106360;1274;138256;-79
2022/06/11 05:25:51;;;;;;;7.80;4.50;;;;;;;16.16;81.56;98959.61;106364;1274;24984;-79
2022/06/11 05:28:25;;;;;;;5.60;4.20;;;;;;;16.22;81.64;98965.02;106710;1274;137807;-79
2022/06/11 05:30:54;;;;;;;5.50;4.30;;;;;;;16.27;81.68;98966.29;106844;1273;30353;-79
2022/06/11 05:33:23;;;;;;;6.30;4.00;;;;;;;16.33;81.71;98967.04;106576;1273;22560;-79
2022/06/11 05:35:50;;;;;;;5.90;3.80;;;;;;;16.42;81.85;98971.89;106447;1273;138151;-79
2022/06/11 05:38:23;;;;;;;5.50;3.70;;;;;;;16.51;81.25;98975.48;105993;1274;24666;-80
2022/06/11 05:40:51;;;;;;;4.20;3.90;;;;;;;16.59;81.10;98973.53;107431;1274;137640;-80
2022/06/11 05:43:19;;;;;;;7.00;4.20;;;;;;;16.65;80.60;98967.23;106675;1274;22570;-79
2022/06/11 05:46:12;;;;;;;4.50;3.80;;;;;;;16.70;79.90;98970.70;106138;1274;25387;-80
2022/06/11 05:48:44;;;;;;;4.80;3.80;;;;;;;16.74;79.70;98972.95;106036;1276;25606;-80
2022/06/11 05:51:18;;;;;;;4.30;3.90;;;;;;;16.77;79.29;98973.40;106454;1274;22553;-80
2022/06/11 05:53:47;;;;;;;4.00;3.50;;;;;;;16.82;79.49;98976.54;106084;1273;137650;-80
2022/06/11 05:56:15;;;;;;;5.40;3.70;;;;;;;16.88;78.89;98975.48;106140;1275;23307;-79
2022/06/11 05:58:47;;;;;;;4.70;3.80;;;;;;;16.94;78.68;98979.38;106350;1275;137673;-80
2022/06/11 06:01:17;;;;;;;6.90;3.90;;;;;;;17.02;78.73;98978.63;106571;1274;24405;-80
2022/06/11 06:03:44;;;;;;;5.40;3.70;;;;;;;17.07;78.23;98988.91;106761;1274;24366;-80
2022/06/11 06:06:11;;;;;;;4.40;3.80;;;;;;;17.12;77.52;98984.84;106366;1274;137883;-81
2022/06/11 06:08:38;;;;;;;4.80;3.50;;;;;;;17.17;77.69;98985.90;106884;1275;22566;-81
2022/06/11 06:11:05;;;;;;;5.40;3.80;;;;;;;17.23;78.16;98986.94;106671;1274;137611;-81
2022/06/11 06:16:21;;;;;;;6.80;3.80;;;;;;;17.40;77.30;98989.35;106424;1274;138391;-81
2022/06/11 06:18:49;;;;;;;6.80;3.80;;;;;;;17.50;77.31;98989.28;106658;1274;25290;-81
2022/06/11 06:21:21;;;;;;;5.00;3.70;;;;;;;17.60;76.82;98989.27;106425;1277;24224;-81
2022/06/11 06:23:48;;;;;;;4.80;4.10;;;;;;;17.69;76.37;98991.73;106486;1277;137558;-81
2022/06/11 06:26:16;;;;;;;3.70;3.30;;;;;;;17.76;76.69;98992.48;106212;1277;25384;-81
2022/06/11 06:28:43;;;;;;;7.60;3.90;;;;;;;17.83;76.19;98997.21;106106;1274;137665;-81
2022/06/11 06:31:13;;;;;;;4.80;3.20;;;;;;;17.95;75.88;98996.05;106482;1274;25268;-81
2022/06/11 06:33:41;;;;;;;3.30;3.00;;;;;;;18.08;75.21;99000.13;107168;1274;23400;-81
2022/06/11 06:36:09;;;;;;;3.90;3.60;;;;;;;18.21;74.73;99000.08;106874;1274;137243;-81
2022/06/11 06:38:38;;;;;;;5.60;3.40;;;;;;;18.36;74.70;98992.25;106524;1274;22586;-81
2022/06/11 06:41:05;;;;;;;6.50;3.50;;;;;;;18.46;74.21;98993.23;106751;1274;137674;-81
2022/06/11 06:43:33;;;;;;;3.90;3.00;;;;;;;18.54;73.81;98994.64;106836;1274;22569;-81
2022/06/11 06:46:01;;;;;;;5.70;3.00;;;;;;;18.57;73.39;98993.84;106581;1275;138641;-82
2022/06/11 06:48:28;;;;;;;5.10;3.90;;;;;;;18.63;73.21;98992.14;106432;1275;22812;-82
2022/06/11 06:50:54;;;;;;;5.40;3.90;;;;;;;18.69;72.80;98995.27;106256;1274;24253;-87
2022/06/11 06:53:23;;;;;;;5.10;3.10;;;;;;;18.74;72.74;98992.63;106051;1277;137687;-82
2022/06/11 06:55:50;;;;;;;4.00;3.00;;;;;;;18.82;72.55;98991.67;107357;1274;23058;-82
2022/06/11 06:58:18;;;;;;;3.40;3.10;;;;;;;18.87;71.75;98994.12;107283;1274;137799;-82
2022/06/11 07:00:46;;;;;;;3.60;3.30;;;;;;;18.94;71.60;98989.16;107104;1276;22572;-80
2022/06/11 07:03:14;;;;;;;4.90;3.40;;;;;;;19.01;71.35;98987.13;106746;1277;24387;-80
2022/06/11 07:05:43;;;;;;;4.40;3.60;;;;;;;19.05;70.75;98988.70;106542;1274;137709;-80
2022/06/11 07:08:12;;;;;;;4.10;3.60;;;;;;;19.11;70.35;98986.66;107007;1274;22693;-81
2022/06/11 07:10:39;;;;;;;3.90;2.80;;;;;;;19.22;69.58;98986.85;107043;1274;137700;-81
2022/06/11 07:13:06;;;;;;;3.50;3.20;;;;;;;19.35;69.38;98984.85;106712;1274;30779;-81
2022/06/11 07:15:35;;;;;;;6.30;3.60;;;;;;;19.40;68.79;98989.39;106830;1274;24316;-80
2022/06/11 07:18:13;;;;;;;3.60;3.30;;;;;;;19.46;68.14;98986.91;106596;1275;137721;-80
2022/06/11 07:20:42;;;;;;;3.80;3.30;;;;;;;19.60;67.85;98989.70;106647;1274;25440;-81
2022/06/11 07:23:15;;;;;;;3.50;2.80;;;;;;;19.70;66.99;98989.00;107021;1274;137832;-81
2022/06/11 07:25:44;;;;;;;3.40;2.70;;;;;;;19.77;66.44;98986.09;106477;1274;25261;-79
2022/06/11 07:28:20;;;;;;;3.40;3.10;;;;;;;19.85;66.13;98989.52;106201;1274;138234;-78
2022/06/11 07:30:47;;;;;;;5.50;2.90;;;;;;;19.93;66.91;98999.06;106461;1274;22563;-77
2022/06/11 07:33:19;;;;;;;3.20;2.90;;;;;;;19.99;66.56;99000.48;106236;1274;25541;-81
2022/06/11 07:35:48;;;;;;;3.10;2.90;;;;;;;19.90;65.02;99000.27;106017;1275;138386;-81
2022/06/11 07:38:17;;;;;;;3.70;3.20;;;;;;;19.77;65.02;99000.61;106210;1274;22541;-81
2022/06/11 07:40:44;;;;;;;4.10;2.80;;;;;;;19.70;66.03;99000.77;106523;1274;138207;-81
2022/06/11 07:43:11;;;;;;;5.00;3.10;;;;;;;19.69;67.05;99004.54;105880;1274;24318;-85
2022/06/11 07:45:41;;;;;;;3.60;3.00;;;;;;;19.67;66.98;99002.02;106577;1274;22556;-84
2022/06/11 07:48:09;;;;;;;3.40;3.10;;;;;;;19.64;66.31;99006.20;106398;1274;137922;-87
2022/06/11 07:50:40;;;;;;;3.00;2.80;;;;;;;19.59;65.94;99002.75;106221;1277;24272;-77
2022/06/11 07:53:08;;;;;;;3.80;2.30;;;;;;;19.66;65.68;99007.38;106199;1275;137559;-82
2022/06/11 07:55:37;;;;;;;3.60;2.50;;;;;;;19.66;64.44;99004.85;106186;1274;22571;-82
2022/06/11 07:58:07;;;;;;;3.10;2.30;;;;;;;19.65;64.41;99005.35;106558;1274;137812;-83
2022/06/11 08:00:38;;;;;;;3.50;2.60;;;;;;;19.71;64.48;98997.73;106777;1276;24502;-83
2022/06/11 08:03:05;;;;;;;3.10;1.90;;;;;;;19.84;63.86;98995.24;106716;1275;23919;-82
2022/06/11 08:05:33;;;;;;;2.00;1.90;;;;;;;19.99;62.40;98998.79;106627;1274;138139;-83
2022/06/11 08:08:02;;;;;;;1.80;1.70;;;;;;;20.14;60.21;99000.92;106354;1277;22570;-83
2022/06/11 08:10:29;;;;;;;1.70;1.60;;;;;;;20.11;59.22;98997.77;106765;1274;137780;-83
2022/06/11 08:12:57;;;;;;;3.40;1.50;;;;;;;20.14;59.55;98993.79;106193;1276;24230;-82
2022/06/11 08:15:24;;;;;;;2.30;1.90;;;;;;;20.29;58.88;98994.44;106513;1276;25545;-83
2022/06/11 08:17:51;;;;;;;3.10;2.10;;;;;;;20.45;58.37;98993.79;106248;1276;137588;-82
2022/06/11 08:20:23;;;;;;;3.50;2.30;;;;;;;20.59;59.15;98993.94;107010;1274;25263;-82
2022/06/11 08:22:50;;;;;;;2.30;2.10;;;;;;;20.78;58.91;98991.87;107595;1274;137729;-82
2022/06/11 08:25:18;;;;;;;3.90;1.60;;;;;;;20.97;58.33;98987.76;106830;1275;22581;-82
2022/06/11 08:27:45;;;;;;;1.60;1.50;;;;;;;21.08;58.43;98986.75;107065;1274;22584;-82
2022/06/11 08:30:16;;;;;;;2.50;1.60;;;;;;;21.16;58.14;98985.23;106854;1274;137214;-83
2022/06/11 08:32:43;;;;;;;3.20;1.60;;;;;;;21.19;56.77;98983.80;106887;1273;23456;-84
2022/06/11 08:35:12;;;;;;;2.30;1.60;;;;;;;21.16;56.37;98978.64;107103;1274;137659;-83
2022/06/11 08:37:40;;;;;;;2.10;2.00;;;;;;;21.19;56.71;98981.32;107078;1274;22579;-83
2022/06/11 08:40:25;;;;;;;2.90;1.70;;;;;;;21.23;57.08;98977.70;106648;1276;138291;-83
2022/06/11 08:43:15;;;;;;;3.50;1.60;;;;;;;21.38;57.85;98982.09;106548;1275;23336;-87
2022/06/11 08:45:58;;;;;;;3.50;1.40;;;;;;;21.60;57.04;98981.30;106210;1274;22632;-86
2022/06/11 08:48:28;;;;;;;3.40;1.90;;;;;;;21.80;56.31;98981.52;106268;1274;22710;-86
2022/06/11 08:51:05;;;;;;;2.50;1.50;;;;;;;21.96;55.24;98982.34;106256;1274;24304;-88
2022/06/11 08:53:35;;;;;;;2.30;2.10;;;;;;;21.96;52.38;98976.73;106274;1276;137740;-87
2022/06/11 08:56:03;;;;;;;2.90;1.70;;;;;;;21.96;52.23;98974.96;106236;1277;22562;-87
2022/06/11 08:58:46;;;;;;;4.30;1.50;;;;;;;22.05;51.75;98972.11;106275;1276;137877;-89
2022/06/11 09:01:29;;;;;;;1.50;1.40;;;;;;;22.22;52.73;98970.27;106300;1275;22632;-87
2022/06/11 09:04:28;;;;;;;3.10;1.60;;;;;;;22.41;52.49;98966.63;106443;1274;137778;-87
2022/06/11 09:07:14;;;;;;;1.00;0.80;;;;;;;22.40;49.92;98969.55;106307;1277;22638;-88
2022/06/11 09:09:51;;;;;;;2.80;1.30;;;;;;;22.26;50.08;98968.10;106517;1274;22821;-87
2022/06/11 09:12:36;;;;;;;1.20;1.10;;;;;;;22.24;50.51;98966.23;106782;1277;22553;-87
2022/06/11 09:15:25;;;;;;;1.60;1.10;;;;;;;22.24;50.79;98959.96;106468;1276;24231;-89
2022/06/11 09:18:14;;;;;;;2.10;1.20;;;;;;;22.30;51.67;98962.30;106240;1275;137861;-90
2022/06/11 09:21:09;;;;;;;4.00;1.40;;;;;;;22.46;51.59;98956.73;106348;1277;22562;-89
2022/06/11 09:24:00;;;;;;;2.00;1.30;;;;;;;22.56;49.00;98944.14;106517;1274;137747;-90
2022/06/11 09:27:00;;;;;;;1.40;1.10;;;;;;;22.62;49.56;98946.02;106448;1275;22751;-90
2022/06/11 09:29:58;;;;;;;1.80;1.20;;;;;;;22.82;48.63;98943.71;106184;1276;137894;-90
2022/06/11 09:32:37;;;;;;;2.10;1.20;;;;;;;22.88;49.13;98947.23;106424;1276;22670;-90
2022/06/11 09:35:08;;;;;;;1.10;1.00;;;;;;;22.92;48.20;98943.85;106594;1274;137590;-90
2022/06/11 09:38:06;;;;;;;4.90;1.10;;;;;;;22.95;47.92;98944.96;107796;1274;22700;-91
2022/06/11 09:40:47;;;;;;;1.30;1.00;;;;;;;23.05;47.73;98935.83;107052;1274;138447;-91
2022/06/11 09:43:36;;;;;;;1.20;1.00;;;;;;;23.06;46.09;98933.41;107055;1274;22601;-90
2022/06/11 09:46:41;;;;;;;1.20;1.00;;;;;;;23.01;46.87;98936.02;106639;1273;138200;-91
2022/06/11 09:49:48;;;;;;;2.90;0.90;;;;;;;22.96;47.62;98932.77;107167;1274;22815;-91
2022/06/11 09:52:35;;;;;;;3.40;0.90;;;;;;;22.92;46.91;98938.91;107195;1275;137918;-91
2022/06/11 09:55:28;;;;;;;1.40;1.20;;;;;;;22.87;46.03;98929.20;106653;1274;22634;-89
2022/06/11 09:58:25;;;;;;;1.30;1.00;;;;;;;22.90;45.83;98926.77;106807;1274;137700;-91
2022/06/11 10:00:57;;;;;;;2.00;1.00;;;;;;;23.04;47.98;98926.96;107455;1274;25165;-91
2022/06/11 10:03:48;;;;;;;1.20;1.10;;;;;;;23.15;45.68;98923.48;107031;1274;22560;-91
2022/06/11 10:06:34;;;;;;;1.90;0.90;;;;;;;23.24;45.98;98928.48;107228;1274;137195;-90
2022/06/11 10:09:33;;;;;;;1.40;1.10;;;;;;;23.22;45.45;98922.29;106675;1274;24996;-91
2022/06/11 10:12:13;;;;;;;1.10;1.00;;;;;;;23.23;44.49;98923.89;106543;1275;137474;-91
2022/06/11 10:14:50;;;;;;;3.00;1.00;;;;;;;23.23;45.67;98923.29;107016;1275;22799;-90
2022/06/11 10:17:30;;;;;;;1.30;1.00;;;;;;;23.27;43.71;98920.45;106842;1274;137766;-90
2022/06/11 10:20:19;;;;;;;1.30;1.10;;;;;;;23.23;45.04;98923.35;106653;1275;25392;-90
2022/06/11 10:22:48;;;;;;;1.40;1.20;;;;;;;23.13;45.34;98916.48;106655;1276;138118;-89
2022/06/11 10:25:25;;;;;;;2.80;1.00;;;;;;;23.14;45.45;98912.66;106617;1274;24378;-90
2022/06/11 10:28:01;;;;;;;2.70;1.20;;;;;;;23.19;44.80;98916.48;106405;1274;138351;-91
2022/06/11 10:31:06;;;;;;;2.10;1.30;;;;;;;23.28;45.14;98917.20;107010;1276;23417;-89
2022/06/11 10:33:48;;;;;;;2.10;1.10;;;;;;;23.45;45.12;98914.80;106676;1274;22636;-88
2022/06/11 10:36:47;;;;;;;3.40;1.20;;;;;;;23.67;45.53;98915.31;107365;1274;138283;-88
2022/06/11 10:39:40;;;;;;;2.40;1.60;;;;;;;23.87;44.84;98910.81;107234;1274;24386;-89
2022/06/11 10:42:20;;;;;;;4.30;1.90;;;;;;;23.91;45.73;98905.66;106346;1274;137782;-88
2022/06/11 10:44:54;;;;;;;1.70;1.60;;;;;;;23.86;46.98;98906.92;106591;1274;22541;-91
2022/06/11 10:47:34;;;;;;;3.00;1.80;;;;;;;23.87;44.83;98911.40;107144;1274;137604;-89
2022/06/11 10:50:02;;;;;;;4.10;1.70;;;;;;;23.81;44.37;98908.77;106697;1274;22543;-90
2022/06/11 10:52:40;;;;;;;2.00;1.60;;;;;;;23.79;44.99;98909.20;106442;1274;137853;-87
2022/06/11 10:55:12;;;;;;;2.90;1.70;;;;;;;23.80;46.09;98909.80;106649;1274;22557;-89
2022/06/11 10:57:41;;;;;;;1.70;1.40;;;;;;;23.87;46.20;98906.66;106695;1274;24838;-88
2022/06/11 11:00:21;;;;;;;1.50;1.40;;;;;;;23.94;45.83;98903.09;106635;1275;138034;-89
2022/06/11 11:02:53;;;;;;;1.60;1.50;;;;;;;24.10;45.57;98898.61;106730;1274;22583;-88
2022/06/11 11:05:21;;;;;;;4.00;1.70;;;;;;;24.14;45.72;98901.52;106723;1274;137696;-89
2022/06/11 11:07:54;;;;;;;1.70;1.60;;;;;;;24.19;45.59;98902.97;106468;1276;25272;-88
2022/06/11 11:10:50;;;;;;;2.20;1.90;;;;;;;24.30;45.91;98902.90;106364;1276;137767;-89
2022/06/11 11:13:25;;;;;;;1.80;1.70;;;;;;;24.28;46.78;98900.93;106384;1277;23043;-88
2022/06/11 11:16:01;;;;;;;5.20;2.00;;;;;;;24.48;46.00;98902.39;106810;1276;138143;-89
2022/06/11 11:18:52;;;;;;;1.90;1.70;;;;;;;24.71;47.10;98900.13;106231;1276;25555;-91
2022/06/11 11:21:29;;;;;;;3.90;1.60;;;;;;;24.73;44.34;98903.57;106800;1274;22550;-90
2022/06/11 11:24:18;;;;;;;2.80;1.60;;;;;;;24.66;41.03;98904.98;106945;1274;137954;-89
2022/06/11 11:27:00;;;;;;;1.80;1.70;;;;;;;24.76;42.56;98899.34;106949;1274;23963;-90
2022/06/11 11:29:34;;;;;;;1.60;1.50;;;;;;;24.94;42.83;98899.95;106225;1274;137666;-90
2022/06/11 11:32:06;;;;;;;2.30;1.30;;;;;;;25.07;42.51;98897.61;106794;1274;24376;-90
2022/06/11 11:34:45;;;;;;;1.70;1.60;;;;;;;24.89;43.77;98899.44;106414;1274;137701;-91
2022/06/11 11:37:13;;;;;;;1.90;1.80;;;;;;;24.60;43.81;98904.16;106403;1274;24205;-90
2022/06/11 11:39:56;;;;;;;1.70;1.60;;;;;;;24.61;43.95;98901.66;106667;1274;22550;-93
2022/06/11 11:42:36;;;;;;;2.40;1.90;;;;;;;24.60;43.17;98900.03;106948;1274;23215;-90
2022/06/11 11:45:27;;;;;;;2.40;1.70;;;;;;;24.73;42.95;98899.04;106370;1276;23185;-90
2022/06/11 11:48:04;;;;;;;2.70;1.80;;;;;;;25.04;44.13;98895.31;106403;1274;137466;-88
2022/06/11 11:50:36;;;;;;;4.80;1.80;;;;;;;25.21;42.97;98897.90;106312;1275;24315;-93
2022/06/11 11:53:21;;;;;;;1.70;1.50;;;;;;;25.09;42.14;98898.94;106084;1276;137530;-88
2022/06/11 11:56:25;;;;;;;2.20;2.00;;;;;;;25.03;42.59;98891.51;106340;1275;22591;-88
2022/06/11 11:59:13;;;;;;;2.00;1.60;;;;;;;25.10;43.54;98890.64;106778;1274;137795;-89
2022/06/11 12:01:41;;;;;;;3.40;1.70;;;;;;;25.37;43.35;98889.91;106316;1276;22564;-90